Port Orford - 15 Nm West Of Port Orford, Or (46015) Wave Buoy

12:50am - Sat 28th Nov 2015 All times are PST. -8 hours from GMT.

  • Sig Wave height 3.3ft
  • Swell Direction
  • Peak Period 15s
  • Average Period 6s
  • Wind
    7mph, 9mph gusts
  • Sea Temp 55°f
  • Air Temp 53°f
  • Sea Pressure 1020.5mb
  • Port Orford - 15 Nm West Of Port Orford, Or
  • Port Orford - 15 Nm West Of Port Orford, Or

More Historic Weather Station data

Upgrade to MSW Pro to gain access to the past 30 days of data for over 8000 Wavebouys and Weather Stations around the globe.

Join Pro

Comparision Forecast

View Surf forecast
Sat 11/28 12:50am 3.5ft 15s 6s 7 9 mph 1020.5mb 55f 53f
Fri 11/27 11:50pm 3ft 15s 6s 7 9 mph 1020.7mb 55f 53f
10:50pm 3ft 15s 6s 9 11 mph 1020.5mb 54f 53f
9:50pm 2.5ft 15s 6s 9 11 mph 1020.7mb 54f 53f
8:50pm 2.5ft 15s 6s 11 13 mph 1020.7mb 54f 52f
7:50pm 2.5ft 15s 6s 9 11 mph 1020.8mb 54f 54f
6:50pm 2.5ft 16s 6s 7 9 mph 1020.8mb 54f 54f
5:50pm 2.5ft 15s 6s 11
1021mb 54f 54f
4:50pm 2.5ft 15s 7s 11
1020.7mb 55f 53f
3:50pm 3ft 15s 7s 9 11 mph 1021.1mb 55f 54f
2:50pm 3.5ft 14s 7s 9
1021.3mb 55f 53f
1:50pm 3ft 15s 6s 9
1022mb 55f 52f
12:50pm 3.5ft 15s 6s 9 11 mph 1022.7mb 55f 52f
11:50am 3.5ft 15s 6s 4 7 mph 1023.3mb 54f 52f
10:50am 3.5ft 15s 6s 2 4 mph 1023.5mb 54f 51f
9:50am 3.5ft 15s 6s 4
1023.3mb 54f 51f
8:50am 3.5ft 14s 6s  -  2 mph 1023mb 54f 51f
7:50am 3.5ft 14s 6s 2 4 mph 1022.6mb 54f 51f
6:50am 4ft 15s 6s 4
1022.4mb 54f 50f
5:50am 4.5ft 16s 7s 7 9 mph 1022.2mb 54f 50f
4:50am 4.5ft 16s 6s 4 7 mph 1022.2mb 54f 53f
3:50am 4.5ft 16s 6s 9 11 mph 1022.1mb 54f 52f
2:50am 4.5ft 16s 6s 9 11 mph 1022.3mb 54f 52f
1:50am 5ft 16s 6s 9 11 mph 1022.2mb 54f 51f
12:50am 4.5ft 17s 6s 13 16 mph 1022mb 54f 51f
Thu 11/26 11:50pm 5ft 17s 6s 11 13 mph 1022mb 54f 51f
10:50pm 5.5ft 16s 6s 13 18 mph 1021.7mb 54f 52f
9:50pm 5.5ft 17s 6s 11 13 mph 1022.1mb 54f 51f
8:50pm 6ft 16s 6s 16 18 mph 1021.8mb 54f 50f
7:50pm 6ft 17s 6s 20 22 mph 1021.8mb 54f 51f
6:50pm 6ft 17s 6s 22 27 mph 1021.5mb 54f 52f
5:50pm 6ft 16s 6s 25 29 mph 1021.1mb 54f 53f
4:50pm 7ft 17s 6s 22 29 mph 1021mb 54f 53f
3:50pm 7.5ft 17s 6s 27 31 mph 1020.7mb 55f 52f
2:50pm 7ft 16s 6s 25 29 mph 1020.8mb 55f 51f
1:50pm 7ft 17s 6s 25 29 mph 1021.1mb 55f 50f
12:50pm 7ft 17s 6s 29 34 mph 1021mb 55f 49f
11:50am 7ft 17s 6s 27 31 mph 1021.3mb 55f 49f
10:50am 7ft 17s 6s 27 31 mph 1021.9mb 55f 48f
9:50am 7ft 10s 6s 27 31 mph 1021.7mb 55f 47f
8:50am 7ft 8s 6s 25 29 mph 1021.9mb 54f 47f
7:50am 7.5ft 10s 6s 25 29 mph 1021.8mb 54f 47f
6:50am 8ft 9s 6s 27 29 mph 1021.3mb 54f 47f
5:50am 8.5ft 8s 6s 27 34 mph 1021.1mb 55f 46f
4:50am 8.5ft 10s 6s 29 34 mph 1020.9mb 55f 46f
3:50am 8ft 9s 6s 29 34 mph 1020.4mb 55f 46f
2:50am 8.5ft 10s 6s 25 29 mph 1020.2mb 55f 45f
1:50am 8.5ft 10s 6s 27 31 mph 1019.9mb 55f 46f
12:50am 8.5ft 10s 6s 29 34 mph 1019.7mb 55f 46f
Wed 11/25 11:50pm 8ft 11s 6s 29 34 mph 1019.9mb 55f 46f
10:50pm 9ft 11s 6s 27 34 mph 1020.2mb 55f 46f
9:50pm 9ft 11s 6s 29 34 mph 1020mb 55f 47f
8:50pm 9ft 11s 6s 27 34 mph 1020.1mb 55f 47f
7:50pm 9ft 11s 6s 27 31 mph 1020.2mb 55f 47f
6:50pm 9ft 11s 6s 27 31 mph 1019.8mb 55f 47f
5:50pm 9.5ft 11s 6s 25 29 mph 1019.6mb 55f 48f
4:50pm 9ft 12s 6s 27 31 mph 1018.8mb 55f 48f
3:50pm 9.5ft 12s 6s 27 34 mph 1018.4mb 55f 48f
2:50pm 11ft 11s 7s 27 36 mph 1018.4mb 55f 47f
1:50pm 10ft 11s 7s 27 31 mph 1018.2mb 55f 47f
12:50pm 11ft 12s 7s 25 29 mph 1018.1mb 55f 47f
11:50am 11.5ft 12s 8s 22 27 mph 1018.6mb 55f 47f
10:50am 12.5ft 12s 8s 22 25 mph 1019mb 55f 47f
9:50am 11.5ft 11s 8s 22 29 mph 1018.9mb 55f 46f
8:50am 11.5ft 12s 8s 18 22 mph 1018.3mb 55f 46f
7:50am 13ft 13s 9s 20 25 mph 1018.1mb 55f 46f
6:50am 13.5ft 13s 9s 22 25 mph 1017.7mb 55f 47f
5:50am 13.5ft 13s 9s 16 20 mph 1017.5mb 55f 47f
4:50am 13ft 13s 9s 13 16 mph 1017.1mb 55f 47f
3:50am 13ft 13s 9s 13 18 mph 1016.8mb 55f 47f
2:50am 13ft 13s 9s 16 18 mph 1016.7mb 55f 48f
1:50am 14ft 14s 9s 13 18 mph 1016.3mb 55f 49f
12:50am 13.5ft 14s 10s 13 16 mph 1016.1mb 55f 48f
Tue 11/24 11:50pm 15.5ft 13s 10s 9 11 mph 1016mb 55f 47f
10:50pm 16.5ft 14s 11s 11 16 mph 1015.7mb 55f 47f
9:50pm 18ft 14s 11s 13 18 mph 1015.5mb 55f 47f
8:50pm 16.5ft 15s 10s 16 18 mph 1015.1mb 55f 47f
7:50pm 16.5ft 14s 10s 16 20 mph 1014.7mb 55f 48f
6:50pm 18.5ft 14s 10s 20 25 mph 1013.9mb 55f 48f
5:50pm 18.5ft 15s 11s 18 22 mph 1013.1mb 55f 48f
4:50pm 19.5ft 14s 11s 16 20 mph 1012.1mb 55f 47f
3:50pm 16.5ft 14s 10s 13 20 mph 1011.2mb 55f 46f
2:50pm 17.5ft 14s 10s 11 18 mph 1009.7mb 55f 47f
1:50pm 15.5ft 13s 9s 2 7 mph 1009mb 55f 48f
12:50pm 13ft 13s 9s 9 16 mph 1009.1mb 55f 47f
11:50am 14ft 14s 9s 11 16 mph 1009.3mb 55f 47f
10:50am 15.5ft 12s 9s 7 9 mph 1010mb 55f 45f